»·PEaware :: N5002T KBUR-KBUR

N5002T :: KBUR-KBUR

FLIGHT INFORMATION

Flight Status: Arrived
Operator: Privately registered:
United States
More flights under this callsign
Pilot: Hunter M. (19355)
Aircraft: CESSNA 172 SKYHAWK
(C172)
More flights by this aircraft type
Origin: KBUR Bob Hope-Burbank
United States
Destination: KBUR Bob Hope-Burbank
United States
More flights between these airports :: More routes between these airports
Route: +SILEX
File this flight plan on PilotEdge
Remarks: Practice multiple approaches into KBUR VTF
Altitude:
(Current/Filed)
4,000ft
Speed:
(Current/Filed)
115kts
Departed: 03-Nov-18 05:55 PM
Arrived: 03-Nov-18 06:21 PM
Distance/Time
Traveled:
0nm/0:25
Distance/Time
To Go:
Arrived

Flight Plot

Page will automatically refresh every two minutes.


Map Options




Map Legend


Flown Route
Filed Route
Departure Airport
Arrival Airport
Navaid (VOR, NDB)
Fix

Horizontal Profiles

Position Reports

Time Latitude Longitude Heading Altitude Ground
Speed
03-Nov-18 17:19 34.195985 -118.366900 180 781ft 0kts
03-Nov-18 17:20 34.195985 -118.366900 180 781ft 0kts
03-Nov-18 17:21 34.195985 -118.366900 180 781ft 0kts
03-Nov-18 17:22 34.195985 -118.366900 180 781ft 0kts
03-Nov-18 17:23 34.195985 -118.366900 180 781ft 0kts
03-Nov-18 17:24 34.195985 -118.366900 180 781ft 0kts
03-Nov-18 17:25 34.195985 -118.366900 180 781ft 0kts
03-Nov-18 17:26 34.195985 -118.366900 180 781ft 0kts
03-Nov-18 17:27 34.195985 -118.366900 180 781ft 0kts
03-Nov-18 17:28 34.195985 -118.366900 180 781ft 0kts
03-Nov-18 17:29 34.195985 -118.366900 180 781ft 0kts
03-Nov-18 17:30 34.195985 -118.366900 180 781ft 0kts
03-Nov-18 17:31 34.195985 -118.366900 180 781ft 0kts
03-Nov-18 17:32 34.195985 -118.366900 180 781ft 0kts
03-Nov-18 17:33 34.195985 -118.366900 180 781ft 0kts
03-Nov-18 17:34 34.195985 -118.366900 180 781ft 0kts
03-Nov-18 17:35 34.195985 -118.366900 180 781ft 0kts
03-Nov-18 17:36 34.195985 -118.366900 180 781ft 0kts
03-Nov-18 17:37 34.195984 -118.366900 180 781ft 0kts
03-Nov-18 17:42 34.195985 -118.366900 180 781ft 0kts
03-Nov-18 17:43 34.195985 -118.366900 180 781ft 0kts
03-Nov-18 17:44 34.195985 -118.366900 180 781ft 0kts
03-Nov-18 17:45 34.195985 -118.366900 180 781ft 0kts
03-Nov-18 17:46 34.195985 -118.366900 180 781ft 0kts
03-Nov-18 17:47 34.195985 -118.366900 180 781ft 0kts
03-Nov-18 17:48 34.195985 -118.366900 180 781ft 0kts
03-Nov-18 17:49 34.195985 -118.366900 180 781ft 0kts
03-Nov-18 17:50 34.195985 -118.366900 180 781ft 0kts
03-Nov-18 17:51 34.195985 -118.366900 180 781ft 0kts
03-Nov-18 17:52 34.195985 -118.366900 180 781ft 0kts
03-Nov-18 17:53 34.195985 -118.366900 180 781ft 0kts
03-Nov-18 17:54 34.196709 -118.366442 282 781ft 7kts
03-Nov-18 17:55 34.197040 -118.368919 345 781ft 0kts
03-Nov-18 17:56 34.197041 -118.368919 345 781ft 0kts
03-Nov-18 17:57 34.197872 -118.366873 93 781ft 39kts
03-Nov-18 17:58 34.197837 -118.340312 99 1436ft 59kts
03-Nov-18 17:59 34.184040 -118.325945 138 2159ft 79kts
03-Nov-18 18:00 34.165996 -118.304341 138 2721ft 102kts
03-Nov-18 18:01 34.144859 -118.280154 138 3204ft 98kts
03-Nov-18 18:02 34.130920 -118.281490 272 3656ft 72kts
03-Nov-18 18:03 34.131660 -118.305529 275 4037ft 78kts
03-Nov-18 18:04 34.133266 -118.338151 274 3987ft 105kts
03-Nov-18 18:05 34.135210 -118.374035 275 4001ft 106kts
03-Nov-18 18:06 34.137158 -118.409817 275 4001ft 106kts
03-Nov-18 18:07 34.139171 -118.445654 276 4000ft 106kts
03-Nov-18 18:08 34.139674 -118.481513 273 4001ft 107kts
03-Nov-18 18:09 34.140091 -118.517462 273 4004ft 107kts
03-Nov-18 18:10 34.140558 -118.553321 273 4006ft 106kts
03-Nov-18 18:11 34.141070 -118.589213 273 4008ft 106kts
03-Nov-18 18:12 34.141608 -118.624993 273 4010ft 106kts
03-Nov-18 18:13 34.157858 -118.642389 3 4009ft 97kts
03-Nov-18 18:14 34.183086 -118.638106 4 4007ft 88kts
03-Nov-18 18:15 34.198631 -118.615697 69 3944ft 97kts
03-Nov-18 18:16 34.200424 -118.582771 88 3892ft 100kts
03-Nov-18 18:17 34.200000 -118.546774 88 3261ft 109kts
03-Nov-18 18:18 34.199595 -118.511590 88 2986ft 98kts
03-Nov-18 18:19 34.199177 -118.479038 88 2876ft 103kts
03-Nov-18 18:20 34.198617 -118.444398 88 2453ft 93kts
03-Nov-18 18:21 34.198682 -118.415735 87 1654ft 72kts
03-Nov-18 18:22 34.198210 -118.394104 92 1047ft 60kts
03-Nov-18 18:23 34.198012 -118.373561 90 859ft 60kts
03-Nov-18 18:24 34.197804 -118.361058 90 781ft 15kts
03-Nov-18 18:25 34.198565 -118.360306 0 781ft 0kts
03-Nov-18 18:26 34.198946 -118.362493 270 781ft 14kts
03-Nov-18 18:27 34.200144 -118.364538 359 781ft 0kts
03-Nov-18 18:28 34.200144 -118.364538 359 781ft 0kts
03-Nov-18 18:29 34.200145 -118.364538 359 781ft 0kts
03-Nov-18 18:30 34.200145 -118.364538 359 781ft 0kts

Navigation Log

Ident Type
Flight plan parsing failed, navigation log unavailable